sensor_id;sensor_type;location;lat;lon;timestamp;temperature;humidity
33881;DHT22;20172;47.530;10.256;2023-11-21T00:00:54;9.80;99.90
33881;DHT22;20172;47.530;10.256;2023-11-21T00:03:20;9.80;99.90
33881;DHT22;20172;47.530;10.256;2023-11-21T00:05:48;9.70;99.90
33881;DHT22;20172;47.530;10.256;2023-11-21T00:08:14;9.70;99.90
33881;DHT22;20172;47.530;10.256;2023-11-21T00:10:39;9.70;99.90
33881;DHT22;20172;47.530;10.256;2023-11-21T00:13:05;9.70;99.90
33881;DHT22;20172;47.530;10.256;2023-11-21T00:15:30;9.70;99.90
33881;DHT22;20172;47.530;10.256;2023-11-21T00:17:56;9.70;99.90
33881;DHT22;20172;47.530;10.256;2023-11-21T00:20:21;9.70;99.90
33881;DHT22;20172;47.530;10.256;2023-11-21T00:22:47;9.70;99.90
33881;DHT22;20172;47.530;10.256;2023-11-21T00:25:13;9.70;99.90
33881;DHT22;20172;47.530;10.256;2023-11-21T00:27:41;9.70;99.90
33881;DHT22;20172;47.530;10.256;2023-11-21T00:30:06;9.70;99.90
33881;DHT22;20172;47.530;10.256;2023-11-21T00:32:32;9.80;99.90
33881;DHT22;20172;47.530;10.256;2023-11-21T00:34:58;9.80;99.90
33881;DHT22;20172;47.530;10.256;2023-11-21T00:37:24;9.90;99.90
33881;DHT22;20172;47.530;10.256;2023-11-21T00:39:50;9.90;99.90
33881;DHT22;20172;47.530;10.256;2023-11-21T00:42:15;9.90;99.90
33881;DHT22;20172;47.530;10.256;2023-11-21T00:44:41;9.90;99.90
33881;DHT22;20172;47.530;10.256;2023-11-21T00:47:07;9.90;99.90
33881;DHT22;20172;47.530;10.256;2023-11-21T00:49:33;9.80;99.90
33881;DHT22;20172;47.530;10.256;2023-11-21T00:51:58;9.70;99.90
33881;DHT22;20172;47.530;10.256;2023-11-21T00:54:24;9.60;99.90
33881;DHT22;20172;47.530;10.256;2023-11-21T00:56:50;9.60;99.90
33881;DHT22;20172;47.530;10.256;2023-11-21T00:59:15;9.60;99.90
33881;DHT22;20172;47.530;10.256;2023-11-21T01:01:41;9.60;99.90
33881;DHT22;20172;47.530;10.256;2023-11-21T01:04:06;9.60;99.90
33881;DHT22;20172;47.530;10.256;2023-11-21T01:06:32;9.60;99.90
33881;DHT22;20172;47.530;10.256;2023-11-21T01:08:58;9.60;99.90
33881;DHT22;20172;47.530;10.256;2023-11-21T01:11:23;9.60;99.90
33881;DHT22;20172;47.530;10.256;2023-11-21T01:13:49;9.50;99.90
33881;DHT22;20172;47.530;10.256;2023-11-21T01:16:14;9.50;99.90
33881;DHT22;20172;47.530;10.256;2023-11-21T01:18:40;9.50;99.90
33881;DHT22;20172;47.530;10.256;2023-11-21T01:21:05;9.50;99.90
33881;DHT22;20172;47.530;10.256;2023-11-21T01:23:31;9.60;99.90
33881;DHT22;20172;47.530;10.256;2023-11-21T01:25:56;9.50;99.90
33881;DHT22;20172;47.530;10.256;2023-11-21T01:28:22;9.50;99.90
33881;DHT22;20172;47.530;10.256;2023-11-21T01:30:48;9.50;99.90
33881;DHT22;20172;47.530;10.256;2023-11-21T01:33:13;9.50;99.90
33881;DHT22;20172;47.530;10.256;2023-11-21T01:35:43;9.50;99.90
33881;DHT22;20172;47.530;10.256;2023-11-21T01:38:11;9.40;99.90
33881;DHT22;20172;47.530;10.256;2023-11-21T01:40:36;9.40;99.90
33881;DHT22;20172;47.530;10.256;2023-11-21T01:43:02;9.30;99.90
33881;DHT22;20172;47.530;10.256;2023-11-21T01:45:28;9.30;99.90
33881;DHT22;20172;47.530;10.256;2023-11-21T01:47:56;9.20;99.90
33881;DHT22;20172;47.530;10.256;2023-11-21T01:50:21;9.10;99.90
33881;DHT22;20172;47.530;10.256;2023-11-21T01:52:47;9.10;99.90
33881;DHT22;20172;47.530;10.256;2023-11-21T01:55:14;9.00;99.90
33881;DHT22;20172;47.530;10.256;2023-11-21T01:57:41;9.10;99.90
33881;DHT22;20172;47.530;10.256;2023-11-21T02:00:07;9.10;99.90
33881;DHT22;20172;47.530;10.256;2023-11-21T02:02:42;9.00;99.90
33881;DHT22;20172;47.530;10.256;2023-11-21T02:05:09;9.00;99.90
33881;DHT22;20172;47.530;10.256;2023-11-21T02:07:35;9.00;99.90
33881;DHT22;20172;47.530;10.256;2023-11-21T02:10:00;9.00;99.90
33881;DHT22;20172;47.530;10.256;2023-11-21T02:12:26;8.90;99.90
33881;DHT22;20172;47.530;10.256;2023-11-21T02:14:53;8.90;99.90
33881;DHT22;20172;47.530;10.256;2023-11-21T02:17:18;9.00;99.90
33881;DHT22;20172;47.530;10.256;2023-11-21T02:19:44;9.00;99.90
33881;DHT22;20172;47.530;10.256;2023-11-21T02:22:10;9.00;99.90
33881;DHT22;20172;47.530;10.256;2023-11-21T02:24:36;9.10;99.90
33881;DHT22;20172;47.530;10.256;2023-11-21T02:27:02;9.00;99.90
33881;DHT22;20172;47.530;10.256;2023-11-21T02:29:27;9.00;99.90
33881;DHT22;20172;47.530;10.256;2023-11-21T02:31:54;9.00;99.90
33881;DHT22;20172;47.530;10.256;2023-11-21T02:34:20;9.00;99.90
33881;DHT22;20172;47.530;10.256;2023-11-21T02:36:46;9.00;99.90
33881;DHT22;20172;47.530;10.256;2023-11-21T02:39:12;9.10;99.90
33881;DHT22;20172;47.530;10.256;2023-11-21T02:41:38;9.00;99.90
33881;DHT22;20172;47.530;10.256;2023-11-21T02:44:07;9.10;99.90
33881;DHT22;20172;47.530;10.256;2023-11-21T02:46:33;9.10;99.90
33881;DHT22;20172;47.530;10.256;2023-11-21T02:48:59;9.10;99.90
33881;DHT22;20172;47.530;10.256;2023-11-21T02:51:25;9.10;99.90
33881;DHT22;20172;47.530;10.256;2023-11-21T02:53:50;9.10;99.90
33881;DHT22;20172;47.530;10.256;2023-11-21T02:56:16;9.20;99.90
33881;DHT22;20172;47.530;10.256;2023-11-21T02:58:42;9.20;99.90
33881;DHT22;20172;47.530;10.256;2023-11-21T03:01:09;9.20;99.90
33881;DHT22;20172;47.530;10.256;2023-11-21T03:03:34;9.30;99.90
33881;DHT22;20172;47.530;10.256;2023-11-21T03:06:02;9.20;99.90
33881;DHT22;20172;47.530;10.256;2023-11-21T03:08:28;9.30;99.90
33881;DHT22;20172;47.530;10.256;2023-11-21T03:10:53;9.30;99.90
33881;DHT22;20172;47.530;10.256;2023-11-21T03:13:19;9.30;99.90
33881;DHT22;20172;47.530;10.256;2023-11-21T03:15:44;9.10;99.90
33881;DHT22;20172;47.530;10.256;2023-11-21T03:18:10;9.10;99.90
33881;DHT22;20172;47.530;10.256;2023-11-21T03:20:35;9.10;99.90
33881;DHT22;20172;47.530;10.256;2023-11-21T03:23:01;9.10;99.90
33881;DHT22;20172;47.530;10.256;2023-11-21T03:25:27;9.20;99.90
33881;DHT22;20172;47.530;10.256;2023-11-21T03:27:52;9.20;99.90
33881;DHT22;20172;47.530;10.256;2023-11-21T03:30:18;9.10;99.90
33881;DHT22;20172;47.530;10.256;2023-11-21T03:32:44;9.10;99.90
33881;DHT22;20172;47.530;10.256;2023-11-21T03:35:10;9.10;99.90
33881;DHT22;20172;47.530;10.256;2023-11-21T03:37:35;9.20;99.90
33881;DHT22;20172;47.530;10.256;2023-11-21T03:40:01;9.20;99.90
33881;DHT22;20172;47.530;10.256;2023-11-21T03:42:29;9.20;99.90
33881;DHT22;20172;47.530;10.256;2023-11-21T03:44:54;9.20;99.90
33881;DHT22;20172;47.530;10.256;2023-11-21T03:47:20;9.20;99.90
33881;DHT22;20172;47.530;10.256;2023-11-21T03:49:45;9.20;99.90
33881;DHT22;20172;47.530;10.256;2023-11-21T03:52:11;9.20;99.90
33881;DHT22;20172;47.530;10.256;2023-11-21T03:54:37;9.20;99.90
33881;DHT22;20172;47.530;10.256;2023-11-21T03:57:03;9.20;99.90
33881;DHT22;20172;47.530;10.256;2023-11-21T03:59:28;9.20;99.90
33881;DHT22;20172;47.530;10.256;2023-11-21T04:01:57;9.20;99.90
33881;DHT22;20172;47.530;10.256;2023-11-21T04:04:22;9.10;99.90
33881;DHT22;20172;47.530;10.256;2023-11-21T04:06:48;9.10;99.90
33881;DHT22;20172;47.530;10.256;2023-11-21T04:09:13;9.10;99.90
33881;DHT22;20172;47.530;10.256;2023-11-21T04:11:39;9.00;99.90
33881;DHT22;20172;47.530;10.256;2023-11-21T04:14:04;8.90;99.90
33881;DHT22;20172;47.530;10.256;2023-11-21T04:16:30;8.80;99.90
33881;DHT22;20172;47.530;10.256;2023-11-21T04:18:55;8.70;99.90
33881;DHT22;20172;47.530;10.256;2023-11-21T04:21:21;8.70;99.90
33881;DHT22;20172;47.530;10.256;2023-11-21T04:23:46;8.60;99.90
33881;DHT22;20172;47.530;10.256;2023-11-21T04:26:12;8.60;99.90
33881;DHT22;20172;47.530;10.256;2023-11-21T04:28:37;8.70;99.90
33881;DHT22;20172;47.530;10.256;2023-11-21T04:31:03;8.70;99.90
33881;DHT22;20172;47.530;10.256;2023-11-21T04:33:28;8.60;99.90
33881;DHT22;20172;47.530;10.256;2023-11-21T04:35:54;8.60;99.90
33881;DHT22;20172;47.530;10.256;2023-11-21T04:38:20;8.60;99.90
33881;DHT22;20172;47.530;10.256;2023-11-21T04:40:45;8.60;99.90
33881;DHT22;20172;47.530;10.256;2023-11-21T04:43:11;8.60;99.90
33881;DHT22;20172;47.530;10.256;2023-11-21T04:45:36;8.60;99.90
33881;DHT22;20172;47.530;10.256;2023-11-21T04:48:02;8.60;99.90
33881;DHT22;20172;47.530;10.256;2023-11-21T04:50:28;8.60;99.90
33881;DHT22;20172;47.530;10.256;2023-11-21T04:52:54;8.60;99.90
33881;DHT22;20172;47.530;10.256;2023-11-21T04:55:19;8.60;99.90
33881;DHT22;20172;47.530;10.256;2023-11-21T04:57:45;8.70;99.90
33881;DHT22;20172;47.530;10.256;2023-11-21T05:00:12;8.70;99.90
33881;DHT22;20172;47.530;10.256;2023-11-21T05:02:38;8.70;99.90
33881;DHT22;20172;47.530;10.256;2023-11-21T05:05:03;8.70;99.90
33881;DHT22;20172;47.530;10.256;2023-11-21T05:07:31;8.80;99.90
33881;DHT22;20172;47.530;10.256;2023-11-21T05:09:57;8.80;99.90
33881;DHT22;20172;47.530;10.256;2023-11-21T05:12:23;8.80;99.90
33881;DHT22;20172;47.530;10.256;2023-11-21T05:14:49;8.70;99.90
33881;DHT22;20172;47.530;10.256;2023-11-21T05:17:15;8.70;99.90
33881;DHT22;20172;47.530;10.256;2023-11-21T05:19:40;8.70;99.90
33881;DHT22;20172;47.530;10.256;2023-11-21T05:22:06;8.80;99.90
33881;DHT22;20172;47.530;10.256;2023-11-21T05:24:31;8.80;99.90
33881;DHT22;20172;47.530;10.256;2023-11-21T05:26:57;8.80;99.90
33881;DHT22;20172;47.530;10.256;2023-11-21T05:29:23;8.80;99.90
33881;DHT22;20172;47.530;10.256;2023-11-21T05:31:48;8.80;99.90
33881;DHT22;20172;47.530;10.256;2023-11-21T05:34:14;8.80;99.90
33881;DHT22;20172;47.530;10.256;2023-11-21T05:36:40;8.80;99.90
33881;DHT22;20172;47.530;10.256;2023-11-21T05:39:06;8.80;99.90
33881;DHT22;20172;47.530;10.256;2023-11-21T05:41:31;8.80;99.90
33881;DHT22;20172;47.530;10.256;2023-11-21T05:43:57;8.80;99.90
33881;DHT22;20172;47.530;10.256;2023-11-21T05:46:23;8.70;99.90
33881;DHT22;20172;47.530;10.256;2023-11-21T05:48:48;8.80;99.90
33881;DHT22;20172;47.530;10.256;2023-11-21T05:51:14;8.80;99.90
33881;DHT22;20172;47.530;10.256;2023-11-21T05:53:39;8.80;99.90
33881;DHT22;20172;47.530;10.256;2023-11-21T05:56:05;8.80;99.90
33881;DHT22;20172;47.530;10.256;2023-11-21T05:58:30;8.80;99.90
33881;DHT22;20172;47.530;10.256;2023-11-21T06:00:56;8.70;99.90
33881;DHT22;20172;47.530;10.256;2023-11-21T06:03:22;8.70;99.90
33881;DHT22;20172;47.530;10.256;2023-11-21T06:05:48;8.70;99.90
33881;DHT22;20172;47.530;10.256;2023-11-21T06:08:14;8.60;99.90
33881;DHT22;20172;47.530;10.256;2023-11-21T06:10:42;8.50;99.90
33881;DHT22;20172;47.530;10.256;2023-11-21T06:13:09;8.50;99.90
33881;DHT22;20172;47.530;10.256;2023-11-21T06:15:35;8.40;99.90
33881;DHT22;20172;47.530;10.256;2023-11-21T06:18:01;8.40;99.90
33881;DHT22;20172;47.530;10.256;2023-11-21T06:20:26;8.40;99.90
33881;DHT22;20172;47.530;10.256;2023-11-21T06:22:52;8.30;99.90
33881;DHT22;20172;47.530;10.256;2023-11-21T06:25:19;8.30;99.90
33881;DHT22;20172;47.530;10.256;2023-11-21T06:27:45;8.30;99.90
33881;DHT22;20172;47.530;10.256;2023-11-21T06:30:11;8.30;99.90
33881;DHT22;20172;47.530;10.256;2023-11-21T06:32:37;8.30;99.90
33881;DHT22;20172;47.530;10.256;2023-11-21T06:35:04;8.20;99.90
33881;DHT22;20172;47.530;10.256;2023-11-21T06:37:30;8.20;99.90
33881;DHT22;20172;47.530;10.256;2023-11-21T06:39:55;8.20;99.90
33881;DHT22;20172;47.530;10.256;2023-11-21T06:42:22;8.20;99.90
33881;DHT22;20172;47.530;10.256;2023-11-21T06:44:47;8.20;99.90
33881;DHT22;20172;47.530;10.256;2023-11-21T06:47:14;8.20;99.90
33881;DHT22;20172;47.530;10.256;2023-11-21T06:49:40;8.20;99.90
33881;DHT22;20172;47.530;10.256;2023-11-21T06:52:06;8.20;99.90
33881;DHT22;20172;47.530;10.256;2023-11-21T06:54:32;8.30;99.90
33881;DHT22;20172;47.530;10.256;2023-11-21T06:56:58;8.40;99.90
33881;DHT22;20172;47.530;10.256;2023-11-21T06:59:23;8.40;99.90
33881;DHT22;20172;47.530;10.256;2023-11-21T07:01:49;8.40;99.90
33881;DHT22;20172;47.530;10.256;2023-11-21T07:04:14;8.40;99.90
33881;DHT22;20172;47.530;10.256;2023-11-21T07:06:40;8.50;99.90
33881;DHT22;20172;47.530;10.256;2023-11-21T07:09:06;8.50;99.90
33881;DHT22;20172;47.530;10.256;2023-11-21T07:11:34;8.60;99.90
33881;DHT22;20172;47.530;10.256;2023-11-21T07:13:59;8.60;99.90
33881;DHT22;20172;47.530;10.256;2023-11-21T07:16:25;8.70;99.90
33881;DHT22;20172;47.530;10.256;2023-11-21T07:18:52;8.70;99.90
33881;DHT22;20172;47.530;10.256;2023-11-21T07:21:17;8.70;99.90
33881;DHT22;20172;47.530;10.256;2023-11-21T07:23:43;8.70;99.90
33881;DHT22;20172;47.530;10.256;2023-11-21T07:26:08;8.60;99.90
33881;DHT22;20172;47.530;10.256;2023-11-21T07:28:36;8.70;99.90
33881;DHT22;20172;47.530;10.256;2023-11-21T07:31:01;8.70;99.90
33881;DHT22;20172;47.530;10.256;2023-11-21T07:33:27;8.70;99.90
33881;DHT22;20172;47.530;10.256;2023-11-21T07:35:52;8.70;99.90
33881;DHT22;20172;47.530;10.256;2023-11-21T07:38:18;8.70;99.90
33881;DHT22;20172;47.530;10.256;2023-11-21T07:40:43;8.70;99.90
33881;DHT22;20172;47.530;10.256;2023-11-21T07:43:09;8.60;99.90
33881;DHT22;20172;47.530;10.256;2023-11-21T07:45:35;8.60;99.90
33881;DHT22;20172;47.530;10.256;2023-11-21T07:48:01;8.60;99.90
33881;DHT22;20172;47.530;10.256;2023-11-21T07:50:28;8.70;99.90
33881;DHT22;20172;47.530;10.256;2023-11-21T07:52:54;8.70;99.90
33881;DHT22;20172;47.530;10.256;2023-11-21T07:55:20;8.70;99.90
33881;DHT22;20172;47.530;10.256;2023-11-21T07:57:45;8.70;99.90
33881;DHT22;20172;47.530;10.256;2023-11-21T08:00:13;8.60;99.90
33881;DHT22;20172;47.530;10.256;2023-11-21T08:02:40;8.60;99.90
33881;DHT22;20172;47.530;10.256;2023-11-21T08:05:11;8.50;99.90
33881;DHT22;20172;47.530;10.256;2023-11-21T08:07:37;8.50;99.90
33881;DHT22;20172;47.530;10.256;2023-11-21T08:10:03;8.50;99.90
33881;DHT22;20172;47.530;10.256;2023-11-21T08:12:30;8.50;99.90
33881;DHT22;20172;47.530;10.256;2023-11-21T08:14:56;8.60;99.90
33881;DHT22;20172;47.530;10.256;2023-11-21T08:17:21;8.60;99.90
33881;DHT22;20172;47.530;10.256;2023-11-21T08:19:47;8.70;99.90
33881;DHT22;20172;47.530;10.256;2023-11-21T08:22:15;8.80;99.90
33881;DHT22;20172;47.530;10.256;2023-11-21T08:24:42;8.80;99.90
33881;DHT22;20172;47.530;10.256;2023-11-21T08:27:08;8.90;99.90
33881;DHT22;20172;47.530;10.256;2023-11-21T08:29:33;8.90;99.90
33881;DHT22;20172;47.530;10.256;2023-11-21T08:31:59;8.90;99.90
33881;DHT22;20172;47.530;10.256;2023-11-21T08:34:25;9.00;99.90
33881;DHT22;20172;47.530;10.256;2023-11-21T08:36:50;9.00;99.90
33881;DHT22;20172;47.530;10.256;2023-11-21T08:39:16;8.90;99.90
33881;DHT22;20172;47.530;10.256;2023-11-21T08:41:44;8.80;99.90
33881;DHT22;20172;47.530;10.256;2023-11-21T08:44:09;8.70;99.90
33881;DHT22;20172;47.530;10.256;2023-11-21T08:46:36;8.80;99.90
33881;DHT22;20172;47.530;10.256;2023-11-21T08:49:03;8.80;99.90
33881;DHT22;20172;47.530;10.256;2023-11-21T08:51:28;8.90;99.90
33881;DHT22;20172;47.530;10.256;2023-11-21T08:53:54;9.00;99.90
33881;DHT22;20172;47.530;10.256;2023-11-21T08:56:20;9.10;99.90
33881;DHT22;20172;47.530;10.256;2023-11-21T08:58:46;9.30;99.90
33881;DHT22;20172;47.530;10.256;2023-11-21T09:01:12;9.40;99.90
33881;DHT22;20172;47.530;10.256;2023-11-21T09:03:38;9.40;99.90
33881;DHT22;20172;47.530;10.256;2023-11-21T09:06:03;9.60;99.90
33881;DHT22;20172;47.530;10.256;2023-11-21T09:08:29;9.70;99.90
33881;DHT22;20172;47.530;10.256;2023-11-21T09:10:55;9.80;99.90
33881;DHT22;20172;47.530;10.256;2023-11-21T09:13:20;9.90;99.90
33881;DHT22;20172;47.530;10.256;2023-11-21T09:15:46;9.90;99.90
33881;DHT22;20172;47.530;10.256;2023-11-21T09:18:14;9.80;99.90
33881;DHT22;20172;47.530;10.256;2023-11-21T09:20:43;9.80;99.90
33881;DHT22;20172;47.530;10.256;2023-11-21T09:23:12;9.70;99.90
33881;DHT22;20172;47.530;10.256;2023-11-21T09:25:37;9.60;99.90
33881;DHT22;20172;47.530;10.256;2023-11-21T09:28:03;9.40;99.90
33881;DHT22;20172;47.530;10.256;2023-11-21T09:30:33;9.30;99.90
33881;DHT22;20172;47.530;10.256;2023-11-21T09:32:59;9.20;99.90
33881;DHT22;20172;47.530;10.256;2023-11-21T09:35:24;9.20;99.90
33881;DHT22;20172;47.530;10.256;2023-11-21T09:37:50;9.10;99.90
33881;DHT22;20172;47.530;10.256;2023-11-21T09:40:18;9.10;99.90
33881;DHT22;20172;47.530;10.256;2023-11-21T09:45:28;9.30;99.90
33881;DHT22;20172;47.530;10.256;2023-11-21T09:47:55;9.40;99.90
33881;DHT22;20172;47.530;10.256;2023-11-21T09:50:23;9.50;99.90
33881;DHT22;20172;47.530;10.256;2023-11-21T09:55:35;9.70;99.90
33881;DHT22;20172;47.530;10.256;2023-11-21T09:58:04;9.70;99.90
33881;DHT22;20172;47.530;10.256;2023-11-21T10:00:33;9.70;99.90
33881;DHT22;20172;47.530;10.256;2023-11-21T10:02:59;9.70;99.90
33881;DHT22;20172;47.530;10.256;2023-11-21T10:05:25;9.70;99.90
33881;DHT22;20172;47.530;10.256;2023-11-21T10:07:50;9.70;99.90
33881;DHT22;20172;47.530;10.256;2023-11-21T10:10:18;9.70;99.90
33881;DHT22;20172;47.530;10.256;2023-11-21T10:12:43;9.70;99.90
33881;DHT22;20172;47.530;10.256;2023-11-21T10:15:13;9.70;99.90
33881;DHT22;20172;47.530;10.256;2023-11-21T10:17:41;9.80;99.90
33881;DHT22;20172;47.530;10.256;2023-11-21T10:20:10;9.70;99.90
33881;DHT22;20172;47.530;10.256;2023-11-21T10:22:39;9.70;99.90
33881;DHT22;20172;47.530;10.256;2023-11-21T10:25:06;9.80;99.90
33881;DHT22;20172;47.530;10.256;2023-11-21T10:27:33;9.80;99.90
33881;DHT22;20172;47.530;10.256;2023-11-21T10:30:03;10.00;99.90
33881;DHT22;20172;47.530;10.256;2023-11-21T10:32:48;10.10;99.90
33881;DHT22;20172;47.530;10.256;2023-11-21T10:35:14;10.20;99.90
33881;DHT22;20172;47.530;10.256;2023-11-21T10:37:40;10.30;99.90
33881;DHT22;20172;47.530;10.256;2023-11-21T10:40:09;10.30;99.90
33881;DHT22;20172;47.530;10.256;2023-11-21T10:42:37;10.40;99.90
33881;DHT22;20172;47.530;10.256;2023-11-21T10:45:03;10.40;99.90
33881;DHT22;20172;47.530;10.256;2023-11-21T10:47:30;10.40;99.90
33881;DHT22;20172;47.530;10.256;2023-11-21T10:49:56;10.50;99.90
33881;DHT22;20172;47.530;10.256;2023-11-21T10:52:21;10.50;99.90
33881;DHT22;20172;47.530;10.256;2023-11-21T10:54:51;10.50;99.90
33881;DHT22;20172;47.530;10.256;2023-11-21T10:57:17;10.60;99.90
33881;DHT22;20172;47.530;10.256;2023-11-21T10:59:44;10.60;99.90
33881;DHT22;20172;47.530;10.256;2023-11-21T11:04:47;10.40;99.90
33881;DHT22;20172;47.530;10.256;2023-11-21T11:07:13;10.20;99.90
33881;DHT22;20172;47.530;10.256;2023-11-21T11:09:41;10.30;99.90
33881;DHT22;20172;47.530;10.256;2023-11-21T11:12:07;10.30;99.90
33881;DHT22;20172;47.530;10.256;2023-11-21T11:14:35;10.40;99.90
33881;DHT22;20172;47.530;10.256;2023-11-21T11:17:01;10.60;99.90
33881;DHT22;20172;47.530;10.256;2023-11-21T11:19:27;10.70;99.90
33881;DHT22;20172;47.530;10.256;2023-11-21T11:27:01;10.70;99.90
33881;DHT22;20172;47.530;10.256;2023-11-21T11:32:13;10.50;99.90
33881;DHT22;20172;47.530;10.256;2023-11-21T11:34:44;10.60;99.90
33881;DHT22;20172;47.530;10.256;2023-11-21T11:37:11;10.70;99.90
33881;DHT22;20172;47.530;10.256;2023-11-21T11:39:38;10.90;99.90
33881;DHT22;20172;47.530;10.256;2023-11-21T11:42:16;11.00;99.90
33881;DHT22;20172;47.530;10.256;2023-11-21T11:52:37;10.80;99.90
33881;DHT22;20172;47.530;10.256;2023-11-21T11:55:05;10.60;99.90
33881;DHT22;20172;47.530;10.256;2023-11-21T11:57:31;10.50;99.90
33881;DHT22;20172;47.530;10.256;2023-11-21T12:00:16;10.40;99.90
33881;DHT22;20172;47.530;10.256;2023-11-21T12:02:50;10.30;99.90
33881;DHT22;20172;47.530;10.256;2023-11-21T12:05:17;10.60;99.90
33881;DHT22;20172;47.530;10.256;2023-11-21T12:07:52;10.90;99.90
33881;DHT22;20172;47.530;10.256;2023-11-21T12:10:21;11.10;99.90
33881;DHT22;20172;47.530;10.256;2023-11-21T12:12:48;12.10;99.90
33881;DHT22;20172;47.530;10.256;2023-11-21T12:15:14;13.10;99.90
33881;DHT22;20172;47.530;10.256;2023-11-21T12:17:43;13.30;99.90
33881;DHT22;20172;47.530;10.256;2023-11-21T12:20:09;13.20;99.90
33881;DHT22;20172;47.530;10.256;2023-11-21T12:22:41;13.00;99.90
33881;DHT22;20172;47.530;10.256;2023-11-21T12:25:07;13.00;99.90
33881;DHT22;20172;47.530;10.256;2023-11-21T12:27:33;13.10;99.90
33881;DHT22;20172;47.530;10.256;2023-11-21T12:29:58;13.10;99.90
33881;DHT22;20172;47.530;10.256;2023-11-21T12:32:24;13.10;99.90
33881;DHT22;20172;47.530;10.256;2023-11-21T12:34:51;13.00;99.90
33881;DHT22;20172;47.530;10.256;2023-11-21T12:37:16;12.80;99.90
33881;DHT22;20172;47.530;10.256;2023-11-21T12:39:42;12.40;99.90
33881;DHT22;20172;47.530;10.256;2023-11-21T12:42:07;12.20;99.90
33881;DHT22;20172;47.530;10.256;2023-11-21T12:44:34;12.00;99.90
33881;DHT22;20172;47.530;10.256;2023-11-21T12:46:59;11.80;99.90
33881;DHT22;20172;47.530;10.256;2023-11-21T12:49:26;11.70;99.90
33881;DHT22;20172;47.530;10.256;2023-11-21T12:51:53;11.60;99.90
33881;DHT22;20172;47.530;10.256;2023-11-21T12:54:19;11.40;99.90
33881;DHT22;20172;47.530;10.256;2023-11-21T12:56:45;11.40;99.90
33881;DHT22;20172;47.530;10.256;2023-11-21T12:59:12;11.30;99.90
33881;DHT22;20172;47.530;10.256;2023-11-21T13:01:41;11.20;99.90
33881;DHT22;20172;47.530;10.256;2023-11-21T13:04:07;11.20;99.90
33881;DHT22;20172;47.530;10.256;2023-11-21T13:06:32;11.20;99.90
33881;DHT22;20172;47.530;10.256;2023-11-21T13:09:03;11.30;99.90
33881;DHT22;20172;47.530;10.256;2023-11-21T13:11:33;11.30;99.90
33881;DHT22;20172;47.530;10.256;2023-11-21T13:13:59;11.30;99.90
33881;DHT22;20172;47.530;10.256;2023-11-21T13:16:26;11.30;99.90
33881;DHT22;20172;47.530;10.256;2023-11-21T13:18:51;11.30;99.90
33881;DHT22;20172;47.530;10.256;2023-11-21T13:21:17;11.30;99.90
33881;DHT22;20172;47.530;10.256;2023-11-21T13:23:43;11.20;99.90
33881;DHT22;20172;47.530;10.256;2023-11-21T13:26:11;11.10;99.90
33881;DHT22;20172;47.530;10.256;2023-11-21T13:28:37;11.00;99.90
33881;DHT22;20172;47.530;10.256;2023-11-21T13:31:03;10.90;99.90
33881;DHT22;20172;47.530;10.256;2023-11-21T13:33:38;10.80;99.90
33881;DHT22;20172;47.530;10.256;2023-11-21T13:36:04;10.80;99.90
33881;DHT22;20172;47.530;10.256;2023-11-21T13:38:32;10.80;99.90
33881;DHT22;20172;47.530;10.256;2023-11-21T13:40:59;10.70;99.90
33881;DHT22;20172;47.530;10.256;2023-11-21T13:43:25;10.80;99.90
33881;DHT22;20172;47.530;10.256;2023-11-21T13:45:51;11.00;99.90
33881;DHT22;20172;47.530;10.256;2023-11-21T13:48:23;11.20;99.90
33881;DHT22;20172;47.530;10.256;2023-11-21T13:50:59;11.30;99.90
33881;DHT22;20172;47.530;10.256;2023-11-21T13:53:34;11.40;99.90
33881;DHT22;20172;47.530;10.256;2023-11-21T13:56:05;11.40;99.90
33881;DHT22;20172;47.530;10.256;2023-11-21T13:58:31;11.30;99.90
33881;DHT22;20172;47.530;10.256;2023-11-21T14:01:17;11.20;99.90
33881;DHT22;20172;47.530;10.256;2023-11-21T14:04:07;11.00;99.90
33881;DHT22;20172;47.530;10.256;2023-11-21T14:06:45;10.70;99.90
33881;DHT22;20172;47.530;10.256;2023-11-21T14:09:18;10.60;99.90
33881;DHT22;20172;47.530;10.256;2023-11-21T14:11:55;10.50;99.90
33881;DHT22;20172;47.530;10.256;2023-11-21T14:14:22;10.40;99.90
33881;DHT22;20172;47.530;10.256;2023-11-21T14:16:50;10.40;99.90
33881;DHT22;20172;47.530;10.256;2023-11-21T14:19:16;10.40;99.90
33881;DHT22;20172;47.530;10.256;2023-11-21T14:21:45;10.40;99.90
33881;DHT22;20172;47.530;10.256;2023-11-21T14:24:11;10.30;99.90
33881;DHT22;20172;47.530;10.256;2023-11-21T14:26:41;10.20;99.90
33881;DHT22;20172;47.530;10.256;2023-11-21T14:29:08;10.00;99.90
33881;DHT22;20172;47.530;10.256;2023-11-21T14:31:34;10.00;99.90
33881;DHT22;20172;47.530;10.256;2023-11-21T14:33:59;9.90;99.90
33881;DHT22;20172;47.530;10.256;2023-11-21T14:36:27;9.80;99.90
33881;DHT22;20172;47.530;10.256;2023-11-21T14:38:52;9.70;99.90
33881;DHT22;20172;47.530;10.256;2023-11-21T14:41:18;9.60;99.90
33881;DHT22;20172;47.530;10.256;2023-11-21T14:43:44;9.50;99.90
33881;DHT22;20172;47.530;10.256;2023-11-21T14:46:12;9.40;99.90
33881;DHT22;20172;47.530;10.256;2023-11-21T14:48:41;9.40;99.90
33881;DHT22;20172;47.530;10.256;2023-11-21T14:51:13;9.30;99.90
33881;DHT22;20172;47.530;10.256;2023-11-21T14:54:10;9.20;99.90
33881;DHT22;20172;47.530;10.256;2023-11-21T14:56:37;9.20;99.90
33881;DHT22;20172;47.530;10.256;2023-11-21T14:59:04;9.10;99.90
33881;DHT22;20172;47.530;10.256;2023-11-21T15:01:34;9.10;99.90
33881;DHT22;20172;47.530;10.256;2023-11-21T15:04:11;9.10;99.90
33881;DHT22;20172;47.530;10.256;2023-11-21T15:06:55;9.10;99.90
33881;DHT22;20172;47.530;10.256;2023-11-21T15:09:23;9.10;99.90
33881;DHT22;20172;47.530;10.256;2023-11-21T15:11:53;9.10;99.90
33881;DHT22;20172;47.530;10.256;2023-11-21T15:14:23;9.10;99.90
33881;DHT22;20172;47.530;10.256;2023-11-21T15:16:51;9.20;99.90
33881;DHT22;20172;47.530;10.256;2023-11-21T15:19:21;9.20;99.90
33881;DHT22;20172;47.530;10.256;2023-11-21T15:21:51;9.30;99.90
33881;DHT22;20172;47.530;10.256;2023-11-21T15:24:17;9.20;99.90
33881;DHT22;20172;47.530;10.256;2023-11-21T15:26:42;9.20;99.90
33881;DHT22;20172;47.530;10.256;2023-11-21T15:29:08;9.20;99.90
33881;DHT22;20172;47.530;10.256;2023-11-21T15:31:34;9.10;99.90
33881;DHT22;20172;47.530;10.256;2023-11-21T15:34:01;9.10;99.90
33881;DHT22;20172;47.530;10.256;2023-11-21T15:36:26;9.00;99.90
33881;DHT22;20172;47.530;10.256;2023-11-21T15:38:53;9.00;99.90
33881;DHT22;20172;47.530;10.256;2023-11-21T15:41:19;8.90;99.90
33881;DHT22;20172;47.530;10.256;2023-11-21T15:43:44;8.90;99.90
33881;DHT22;20172;47.530;10.256;2023-11-21T15:46:10;8.90;99.90
33881;DHT22;20172;47.530;10.256;2023-11-21T15:48:36;8.90;99.90